sensor_id;sensor_type;location;lat;lon;timestamp;temperature;humidity
4643;DHT22;2334;48.710;9.622;2022-08-18T00:00:11;20.10;99.90
4643;DHT22;2334;48.710;9.622;2022-08-18T00:02:41;20.10;99.90
4643;DHT22;2334;48.710;9.622;2022-08-18T00:05:09;20.10;99.90
4643;DHT22;2334;48.710;9.622;2022-08-18T00:07:37;20.10;99.90
4643;DHT22;2334;48.710;9.622;2022-08-18T00:10:05;20.10;99.90
4643;DHT22;2334;48.710;9.622;2022-08-18T00:12:38;20.10;99.90
4643;DHT22;2334;48.710;9.622;2022-08-18T00:15:08;20.10;99.90
4643;DHT22;2334;48.710;9.622;2022-08-18T00:17:37;20.10;99.90
4643;DHT22;2334;48.710;9.622;2022-08-18T00:20:08;19.90;99.90
4643;DHT22;2334;48.710;9.622;2022-08-18T00:22:36;19.80;99.90
4643;DHT22;2334;48.710;9.622;2022-08-18T00:25:06;19.70;99.90
4643;DHT22;2334;48.710;9.622;2022-08-18T00:27:34;19.70;99.90
4643;DHT22;2334;48.710;9.622;2022-08-18T00:30:04;19.80;99.90
4643;DHT22;2334;48.710;9.622;2022-08-18T00:32:33;19.70;99.90
4643;DHT22;2334;48.710;9.622;2022-08-18T00:35:09;19.60;99.90
4643;DHT22;2334;48.710;9.622;2022-08-18T00:37:38;19.60;99.90
4643;DHT22;2334;48.710;9.622;2022-08-18T00:40:07;19.50;99.90
4643;DHT22;2334;48.710;9.622;2022-08-18T00:42:41;19.50;99.90
4643;DHT22;2334;48.710;9.622;2022-08-18T00:45:13;19.60;99.90
4643;DHT22;2334;48.710;9.622;2022-08-18T00:47:39;19.60;99.90
4643;DHT22;2334;48.710;9.622;2022-08-18T00:50:10;19.50;99.90
4643;DHT22;2334;48.710;9.622;2022-08-18T00:52:38;19.40;99.90
4643;DHT22;2334;48.710;9.622;2022-08-18T00:55:06;19.50;99.90
4643;DHT22;2334;48.710;9.622;2022-08-18T00:57:34;19.50;99.90
4643;DHT22;2334;48.710;9.622;2022-08-18T01:00:04;19.50;99.90
4643;DHT22;2334;48.710;9.622;2022-08-18T01:02:39;19.60;99.90
4643;DHT22;2334;48.710;9.622;2022-08-18T01:05:12;19.50;99.90
4643;DHT22;2334;48.710;9.622;2022-08-18T01:07:44;19.50;99.90
4643;DHT22;2334;48.710;9.622;2022-08-18T01:10:12;19.40;99.90
4643;DHT22;2334;48.710;9.622;2022-08-18T01:12:41;19.20;99.90
4643;DHT22;2334;48.710;9.622;2022-08-18T01:15:08;19.20;99.90
4643;DHT22;2334;48.710;9.622;2022-08-18T01:17:36;19.30;99.90
4643;DHT22;2334;48.710;9.622;2022-08-18T01:20:28;19.30;99.90
4643;DHT22;2334;48.710;9.622;2022-08-18T01:23:18;19.30;99.90
4643;DHT22;2334;48.710;9.622;2022-08-18T01:25:47;19.50;99.90
4643;DHT22;2334;48.710;9.622;2022-08-18T01:28:30;19.50;99.90
4643;DHT22;2334;48.710;9.622;2022-08-18T01:30:59;19.50;99.90
4643;DHT22;2334;48.710;9.622;2022-08-18T01:33:28;19.50;99.90
4643;DHT22;2334;48.710;9.622;2022-08-18T01:35:59;19.40;99.90
4643;DHT22;2334;48.710;9.622;2022-08-18T01:38:27;19.40;99.90
4643;DHT22;2334;48.710;9.622;2022-08-18T01:40:56;19.30;99.90
4643;DHT22;2334;48.710;9.622;2022-08-18T01:43:24;19.30;99.90
4643;DHT22;2334;48.710;9.622;2022-08-18T01:45:51;19.20;99.90
4643;DHT22;2334;48.710;9.622;2022-08-18T01:48:18;19.20;99.90
4643;DHT22;2334;48.710;9.622;2022-08-18T01:50:44;19.20;99.90
4643;DHT22;2334;48.710;9.622;2022-08-18T01:53:14;19.20;99.90
4643;DHT22;2334;48.710;9.622;2022-08-18T01:55:43;19.30;99.90
4643;DHT22;2334;48.710;9.622;2022-08-18T01:58:11;19.30;99.90
4643;DHT22;2334;48.710;9.622;2022-08-18T02:00:38;19.30;99.90
4643;DHT22;2334;48.710;9.622;2022-08-18T02:03:10;19.30;99.90
4643;DHT22;2334;48.710;9.622;2022-08-18T02:05:40;19.30;99.90
4643;DHT22;2334;48.710;9.622;2022-08-18T02:08:09;19.30;99.90
4643;DHT22;2334;48.710;9.622;2022-08-18T02:10:37;19.30;99.90
4643;DHT22;2334;48.710;9.622;2022-08-18T02:13:05;19.30;99.90
4643;DHT22;2334;48.710;9.622;2022-08-18T02:15:32;19.20;99.90
4643;DHT22;2334;48.710;9.622;2022-08-18T02:18:00;19.20;99.90
4643;DHT22;2334;48.710;9.622;2022-08-18T02:20:27;19.10;99.90
4643;DHT22;2334;48.710;9.622;2022-08-18T02:22:53;19.10;99.90
4643;DHT22;2334;48.710;9.622;2022-08-18T02:25:23;19.10;99.90
4643;DHT22;2334;48.710;9.622;2022-08-18T02:27:50;19.00;99.90
4643;DHT22;2334;48.710;9.622;2022-08-18T02:30:19;19.10;99.90
4643;DHT22;2334;48.710;9.622;2022-08-18T02:32:46;19.20;99.90
4643;DHT22;2334;48.710;9.622;2022-08-18T02:35:13;19.10;99.90
4643;DHT22;2334;48.710;9.622;2022-08-18T02:37:42;19.10;99.90
4643;DHT22;2334;48.710;9.622;2022-08-18T02:40:12;19.10;99.90
4643;DHT22;2334;48.710;9.622;2022-08-18T02:42:39;19.10;99.90
4643;DHT22;2334;48.710;9.622;2022-08-18T02:45:08;19.10;99.90
4643;DHT22;2334;48.710;9.622;2022-08-18T02:47:36;19.10;99.90
4643;DHT22;2334;48.710;9.622;2022-08-18T02:50:04;19.10;99.90
4643;DHT22;2334;48.710;9.622;2022-08-18T02:52:33;19.10;99.90
4643;DHT22;2334;48.710;9.622;2022-08-18T02:55:00;19.10;99.90
4643;DHT22;2334;48.710;9.622;2022-08-18T02:57:28;19.20;99.90
4643;DHT22;2334;48.710;9.622;2022-08-18T02:59:55;19.10;99.90
4643;DHT22;2334;48.710;9.622;2022-08-18T03:02:22;19.20;99.90
4643;DHT22;2334;48.710;9.622;2022-08-18T03:04:50;19.20;99.90
4643;DHT22;2334;48.710;9.622;2022-08-18T03:07:17;19.20;99.90
4643;DHT22;2334;48.710;9.622;2022-08-18T03:09:44;19.20;99.90
4643;DHT22;2334;48.710;9.622;2022-08-18T03:12:11;19.20;99.90
4643;DHT22;2334;48.710;9.622;2022-08-18T03:14:38;19.30;99.90
4643;DHT22;2334;48.710;9.622;2022-08-18T03:17:07;19.30;99.90
4643;DHT22;2334;48.710;9.622;2022-08-18T03:19:34;19.30;99.90
4643;DHT22;2334;48.710;9.622;2022-08-18T03:22:04;19.30;99.90
4643;DHT22;2334;48.710;9.622;2022-08-18T03:24:34;19.30;99.90
4643;DHT22;2334;48.710;9.622;2022-08-18T03:27:04;19.30;99.90
4643;DHT22;2334;48.710;9.622;2022-08-18T03:29:32;19.30;99.90
4643;DHT22;2334;48.710;9.622;2022-08-18T03:31:59;19.30;99.90
4643;DHT22;2334;48.710;9.622;2022-08-18T03:34:27;19.20;99.90
4643;DHT22;2334;48.710;9.622;2022-08-18T03:36:54;19.20;99.90
4643;DHT22;2334;48.710;9.622;2022-08-18T03:39:22;19.20;99.90
4643;DHT22;2334;48.710;9.622;2022-08-18T03:41:51;19.20;99.90
4643;DHT22;2334;48.710;9.622;2022-08-18T03:44:19;19.20;99.90
4643;DHT22;2334;48.710;9.622;2022-08-18T03:46:48;19.20;99.90
4643;DHT22;2334;48.710;9.622;2022-08-18T03:49:15;19.00;99.90
4643;DHT22;2334;48.710;9.622;2022-08-18T03:51:44;19.00;99.90
4643;DHT22;2334;48.710;9.622;2022-08-18T03:54:13;19.00;99.90
4643;DHT22;2334;48.710;9.622;2022-08-18T03:56:44;19.00;99.90
4643;DHT22;2334;48.710;9.622;2022-08-18T03:59:13;19.00;99.90
4643;DHT22;2334;48.710;9.622;2022-08-18T04:01:43;19.00;99.90
4643;DHT22;2334;48.710;9.622;2022-08-18T04:04:12;19.00;99.90
4643;DHT22;2334;48.710;9.622;2022-08-18T04:06:41;19.00;99.90
4643;DHT22;2334;48.710;9.622;2022-08-18T04:09:12;19.00;99.90
4643;DHT22;2334;48.710;9.622;2022-08-18T04:11:40;18.90;99.90
4643;DHT22;2334;48.710;9.622;2022-08-18T04:14:11;19.00;99.90
4643;DHT22;2334;48.710;9.622;2022-08-18T04:16:39;18.90;99.90
4643;DHT22;2334;48.710;9.622;2022-08-18T04:19:06;18.80;99.90
4643;DHT22;2334;48.710;9.622;2022-08-18T04:21:36;18.80;99.90
4643;DHT22;2334;48.710;9.622;2022-08-18T04:24:04;18.70;99.90
4643;DHT22;2334;48.710;9.622;2022-08-18T04:26:34;18.70;99.90
4643;DHT22;2334;48.710;9.622;2022-08-18T04:29:02;18.70;99.90
4643;DHT22;2334;48.710;9.622;2022-08-18T04:31:30;18.70;99.90
4643;DHT22;2334;48.710;9.622;2022-08-18T04:33:58;18.70;99.90
4643;DHT22;2334;48.710;9.622;2022-08-18T04:36:27;18.70;99.90
4643;DHT22;2334;48.710;9.622;2022-08-18T04:38:54;18.80;99.90
4643;DHT22;2334;48.710;9.622;2022-08-18T04:41:21;18.70;99.90
4643;DHT22;2334;48.710;9.622;2022-08-18T04:43:51;18.80;99.90
4643;DHT22;2334;48.710;9.622;2022-08-18T04:46:18;18.80;99.90
4643;DHT22;2334;48.710;9.622;2022-08-18T04:48:46;18.90;99.90
4643;DHT22;2334;48.710;9.622;2022-08-18T04:51:16;18.80;99.90
4643;DHT22;2334;48.710;9.622;2022-08-18T04:53:44;18.80;99.90
4643;DHT22;2334;48.710;9.622;2022-08-18T04:56:14;18.80;99.90
4643;DHT22;2334;48.710;9.622;2022-08-18T04:58:42;18.80;99.90
4643;DHT22;2334;48.710;9.622;2022-08-18T05:01:09;18.90;99.90
4643;DHT22;2334;48.710;9.622;2022-08-18T05:03:36;19.00;99.90
4643;DHT22;2334;48.710;9.622;2022-08-18T05:06:05;19.10;99.90
4643;DHT22;2334;48.710;9.622;2022-08-18T05:08:32;19.10;99.90
4643;DHT22;2334;48.710;9.622;2022-08-18T05:10:59;19.00;99.90
4643;DHT22;2334;48.710;9.622;2022-08-18T05:13:26;19.00;99.90
4643;DHT22;2334;48.710;9.622;2022-08-18T05:15:54;19.10;99.90
4643;DHT22;2334;48.710;9.622;2022-08-18T05:18:21;19.10;99.90
4643;DHT22;2334;48.710;9.622;2022-08-18T05:20:49;19.20;99.90
4643;DHT22;2334;48.710;9.622;2022-08-18T05:23:19;19.10;99.90
4643;DHT22;2334;48.710;9.622;2022-08-18T05:25:46;19.00;99.90
4643;DHT22;2334;48.710;9.622;2022-08-18T05:28:13;19.10;99.90
4643;DHT22;2334;48.710;9.622;2022-08-18T05:30:41;19.10;99.90
4643;DHT22;2334;48.710;9.622;2022-08-18T05:33:08;19.20;99.90
4643;DHT22;2334;48.710;9.622;2022-08-18T05:35:40;19.20;99.90
4643;DHT22;2334;48.710;9.622;2022-08-18T05:38:34;19.10;99.90
4643;DHT22;2334;48.710;9.622;2022-08-18T05:41:07;19.00;99.90
4643;DHT22;2334;48.710;9.622;2022-08-18T05:43:36;18.90;99.90
4643;DHT22;2334;48.710;9.622;2022-08-18T05:46:05;18.90;99.90
4643;DHT22;2334;48.710;9.622;2022-08-18T05:48:33;18.90;99.90
4643;DHT22;2334;48.710;9.622;2022-08-18T05:51:10;19.00;99.90
4643;DHT22;2334;48.710;9.622;2022-08-18T05:53:40;18.90;99.90
4643;DHT22;2334;48.710;9.622;2022-08-18T05:56:29;18.80;99.90
4643;DHT22;2334;48.710;9.622;2022-08-18T05:59:17;18.70;99.90
4643;DHT22;2334;48.710;9.622;2022-08-18T06:01:48;18.80;99.90
4643;DHT22;2334;48.710;9.622;2022-08-18T06:04:25;18.80;99.90
4643;DHT22;2334;48.710;9.622;2022-08-18T06:06:54;18.80;99.90
4643;DHT22;2334;48.710;9.622;2022-08-18T06:09:27;18.70;99.90
4643;DHT22;2334;48.710;9.622;2022-08-18T06:12:04;18.90;99.90
4643;DHT22;2334;48.710;9.622;2022-08-18T06:14:36;19.00;99.90
4643;DHT22;2334;48.710;9.622;2022-08-18T06:17:12;19.00;99.90
4643;DHT22;2334;48.710;9.622;2022-08-18T06:19:49;19.20;99.90
4643;DHT22;2334;48.710;9.622;2022-08-18T06:22:26;19.30;99.90
4643;DHT22;2334;48.710;9.622;2022-08-18T06:25:00;19.30;99.90
4643;DHT22;2334;48.710;9.622;2022-08-18T06:27:36;19.20;99.90
4643;DHT22;2334;48.710;9.622;2022-08-18T06:30:11;19.20;99.90
4643;DHT22;2334;48.710;9.622;2022-08-18T06:32:56;19.40;99.90
4643;DHT22;2334;48.710;9.622;2022-08-18T06:35:33;19.30;99.90
4643;DHT22;2334;48.710;9.622;2022-08-18T06:38:10;19.30;99.90
4643;DHT22;2334;48.710;9.622;2022-08-18T06:41:03;19.30;99.90
4643;DHT22;2334;48.710;9.622;2022-08-18T06:43:36;19.30;99.90
4643;DHT22;2334;48.710;9.622;2022-08-18T06:46:21;19.40;99.90
4643;DHT22;2334;48.710;9.622;2022-08-18T06:48:53;19.30;99.90
4643;DHT22;2334;48.710;9.622;2022-08-18T06:51:22;19.40;99.90
4643;DHT22;2334;48.710;9.622;2022-08-18T06:53:56;19.40;99.90
4643;DHT22;2334;48.710;9.622;2022-08-18T06:56:32;19.60;99.90
4643;DHT22;2334;48.710;9.622;2022-08-18T06:59:16;19.60;99.90
4643;DHT22;2334;48.710;9.622;2022-08-18T07:01:44;19.70;99.90
4643;DHT22;2334;48.710;9.622;2022-08-18T07:07:19;20.00;99.90
4643;DHT22;2334;48.710;9.622;2022-08-18T07:09:47;20.10;99.90
4643;DHT22;2334;48.710;9.622;2022-08-18T07:12:22;20.30;99.90
4643;DHT22;2334;48.710;9.622;2022-08-18T07:14:52;20.30;99.90
4643;DHT22;2334;48.710;9.622;2022-08-18T07:17:23;20.40;99.90
4643;DHT22;2334;48.710;9.622;2022-08-18T07:20:04;20.50;99.90
4643;DHT22;2334;48.710;9.622;2022-08-18T07:22:31;20.60;99.90
4643;DHT22;2334;48.710;9.622;2022-08-18T07:25:00;20.70;99.90
4643;DHT22;2334;48.710;9.622;2022-08-18T07:27:47;20.70;99.90
4643;DHT22;2334;48.710;9.622;2022-08-18T07:30:26;20.90;99.90
4643;DHT22;2334;48.710;9.622;2022-08-18T07:32:59;20.90;99.90
4643;DHT22;2334;48.710;9.622;2022-08-18T07:35:31;20.70;99.90
4643;DHT22;2334;48.710;9.622;2022-08-18T07:38:03;20.80;99.90
4643;DHT22;2334;48.710;9.622;2022-08-18T07:40:37;20.60;99.90
4643;DHT22;2334;48.710;9.622;2022-08-18T07:43:13;20.40;99.90
4643;DHT22;2334;48.710;9.622;2022-08-18T07:45:44;20.20;99.90
4643;DHT22;2334;48.710;9.622;2022-08-18T07:48:14;20.40;99.90
4643;DHT22;2334;48.710;9.622;2022-08-18T07:50:52;20.40;99.90
4643;DHT22;2334;48.710;9.622;2022-08-18T07:53:29;20.40;99.90
4643;DHT22;2334;48.710;9.622;2022-08-18T07:56:04;20.30;99.90
4643;DHT22;2334;48.710;9.622;2022-08-18T07:58:40;20.30;99.90
4643;DHT22;2334;48.710;9.622;2022-08-18T08:01:19;20.30;99.90
4643;DHT22;2334;48.710;9.622;2022-08-18T08:03:53;20.20;99.90
4643;DHT22;2334;48.710;9.622;2022-08-18T08:06:29;20.20;99.90
4643;DHT22;2334;48.710;9.622;2022-08-18T08:09:04;20.20;99.90
4643;DHT22;2334;48.710;9.622;2022-08-18T08:11:40;20.20;99.90
4643;DHT22;2334;48.710;9.622;2022-08-18T08:14:23;20.20;99.90
4643;DHT22;2334;48.710;9.622;2022-08-18T08:17:01;20.30;99.90
4643;DHT22;2334;48.710;9.622;2022-08-18T08:19:52;20.30;99.90
4643;DHT22;2334;48.710;9.622;2022-08-18T08:22:30;20.30;99.90
4643;DHT22;2334;48.710;9.622;2022-08-18T08:25:03;20.30;99.90
4643;DHT22;2334;48.710;9.622;2022-08-18T08:27:40;20.40;99.90
4643;DHT22;2334;48.710;9.622;2022-08-18T08:30:15;20.40;99.90
4643;DHT22;2334;48.710;9.622;2022-08-18T08:32:51;20.40;99.90
4643;DHT22;2334;48.710;9.622;2022-08-18T08:35:35;20.60;99.90
4643;DHT22;2334;48.710;9.622;2022-08-18T08:38:09;20.70;99.90
4643;DHT22;2334;48.710;9.622;2022-08-18T08:40:49;20.70;99.90
4643;DHT22;2334;48.710;9.622;2022-08-18T08:43:20;20.70;99.90
4643;DHT22;2334;48.710;9.622;2022-08-18T08:45:56;20.70;99.90
4643;DHT22;2334;48.710;9.622;2022-08-18T08:48:28;20.80;99.90
4643;DHT22;2334;48.710;9.622;2022-08-18T08:50:59;21.00;99.90
4643;DHT22;2334;48.710;9.622;2022-08-18T08:53:31;21.10;99.90
4643;DHT22;2334;48.710;9.622;2022-08-18T08:56:02;21.00;99.90
4643;DHT22;2334;48.710;9.622;2022-08-18T08:58:36;20.90;99.90
4643;DHT22;2334;48.710;9.622;2022-08-18T09:01:14;21.10;99.90
4643;DHT22;2334;48.710;9.622;2022-08-18T09:03:48;21.40;99.90
4643;DHT22;2334;48.710;9.622;2022-08-18T09:06:26;21.60;99.90
4643;DHT22;2334;48.710;9.622;2022-08-18T09:09:11;21.50;99.90
4643;DHT22;2334;48.710;9.622;2022-08-18T09:12:07;21.60;99.90
4643;DHT22;2334;48.710;9.622;2022-08-18T09:14:58;21.70;99.90
4643;DHT22;2334;48.710;9.622;2022-08-18T09:17:44;21.80;99.90
4643;DHT22;2334;48.710;9.622;2022-08-18T09:20:28;21.90;99.90
4643;DHT22;2334;48.710;9.622;2022-08-18T09:23:03;22.20;99.90
4643;DHT22;2334;48.710;9.622;2022-08-18T09:25:43;22.20;99.90
4643;DHT22;2334;48.710;9.622;2022-08-18T09:28:13;22.30;99.90
4643;DHT22;2334;48.710;9.622;2022-08-18T09:30:47;22.30;99.90
4643;DHT22;2334;48.710;9.622;2022-08-18T09:33:28;22.50;99.90
4643;DHT22;2334;48.710;9.622;2022-08-18T09:36:19;22.30;99.90
4643;DHT22;2334;48.710;9.622;2022-08-18T09:38:52;22.10;99.90
4643;DHT22;2334;48.710;9.622;2022-08-18T09:41:46;22.20;99.90
4643;DHT22;2334;48.710;9.622;2022-08-18T09:53:34;21.80;99.90
4643;DHT22;2334;48.710;9.622;2022-08-18T09:56:03;21.80;99.90
4643;DHT22;2334;48.710;9.622;2022-08-18T09:58:52;21.90;99.90
4643;DHT22;2334;48.710;9.622;2022-08-18T10:01:33;22.00;99.90
4643;DHT22;2334;48.710;9.622;2022-08-18T10:04:32;21.90;99.90
4643;DHT22;2334;48.710;9.622;2022-08-18T10:07:29;22.10;99.90
4643;DHT22;2334;48.710;9.622;2022-08-18T10:10:12;22.50;99.90
4643;DHT22;2334;48.710;9.622;2022-08-18T10:13:04;22.90;99.90
4643;DHT22;2334;48.710;9.622;2022-08-18T10:15:50;23.00;99.90
4643;DHT22;2334;48.710;9.622;2022-08-18T10:18:41;22.80;99.90
4643;DHT22;2334;48.710;9.622;2022-08-18T10:21:13;22.90;99.90
4643;DHT22;2334;48.710;9.622;2022-08-18T10:23:49;23.20;99.90
4643;DHT22;2334;48.710;9.622;2022-08-18T10:29:54;24.40;99.90
4643;DHT22;2334;48.710;9.622;2022-08-18T10:38:35;24.20;99.90
4643;DHT22;2334;48.710;9.622;2022-08-18T10:41:08;23.70;99.90
4643;DHT22;2334;48.710;9.622;2022-08-18T10:43:41;23.70;99.90
4643;DHT22;2334;48.710;9.622;2022-08-18T10:46:17;23.90;99.90
4643;DHT22;2334;48.710;9.622;2022-08-18T10:49:00;24.10;99.90
4643;DHT22;2334;48.710;9.622;2022-08-18T10:51:40;24.00;99.90
4643;DHT22;2334;48.710;9.622;2022-08-18T10:54:16;24.00;99.90
4643;DHT22;2334;48.710;9.622;2022-08-18T10:56:51;24.20;99.90
4643;DHT22;2334;48.710;9.622;2022-08-18T10:59:26;24.00;99.90
4643;DHT22;2334;48.710;9.622;2022-08-18T11:02:08;24.10;99.90
4643;DHT22;2334;48.710;9.622;2022-08-18T11:04:42;24.30;99.90
4643;DHT22;2334;48.710;9.622;2022-08-18T11:07:13;23.90;99.90
4643;DHT22;2334;48.710;9.622;2022-08-18T11:09:42;24.10;99.90
4643;DHT22;2334;48.710;9.622;2022-08-18T11:12:12;24.60;99.90
4643;DHT22;2334;48.710;9.622;2022-08-18T11:15:04;24.80;99.90
4643;DHT22;2334;48.710;9.622;2022-08-18T11:17:41;25.30;99.90
4643;DHT22;2334;48.710;9.622;2022-08-18T11:20:13;25.40;99.90
4643;DHT22;2334;48.710;9.622;2022-08-18T11:22:50;25.40;99.90
4643;DHT22;2334;48.710;9.622;2022-08-18T11:25:25;25.50;99.90
4643;DHT22;2334;48.710;9.622;2022-08-18T11:27:54;25.60;99.90
4643;DHT22;2334;48.710;9.622;2022-08-18T11:30:24;25.60;99.90
4643;DHT22;2334;48.710;9.622;2022-08-18T11:32:52;25.80;99.90
4643;DHT22;2334;48.710;9.622;2022-08-18T11:35:23;25.90;99.90
4643;DHT22;2334;48.710;9.622;2022-08-18T11:37:55;25.40;99.90
4643;DHT22;2334;48.710;9.622;2022-08-18T11:40:34;25.40;99.90
4643;DHT22;2334;48.710;9.622;2022-08-18T11:43:09;25.70;99.90
4643;DHT22;2334;48.710;9.622;2022-08-18T11:45:49;26.20;99.90
4643;DHT22;2334;48.710;9.622;2022-08-18T11:48:20;26.60;99.90
4643;DHT22;2334;48.710;9.622;2022-08-18T11:50:59;26.70;99.90
4643;DHT22;2334;48.710;9.622;2022-08-18T11:53:36;26.60;99.90
4643;DHT22;2334;48.710;9.622;2022-08-18T11:56:13;26.20;99.90
4643;DHT22;2334;48.710;9.622;2022-08-18T11:58:44;26.30;99.90
4643;DHT22;2334;48.710;9.622;2022-08-18T12:01:37;26.60;99.90
4643;DHT22;2334;48.710;9.622;2022-08-18T12:04:20;26.70;99.90
4643;DHT22;2334;48.710;9.622;2022-08-18T12:06:59;26.60;99.90
4643;DHT22;2334;48.710;9.622;2022-08-18T12:09:32;26.80;99.90
4643;DHT22;2334;48.710;9.622;2022-08-18T12:12:02;27.10;99.90
4643;DHT22;2334;48.710;9.622;2022-08-18T12:14:49;26.90;99.90
4643;DHT22;2334;48.710;9.622;2022-08-18T12:17:16;27.40;99.90
4643;DHT22;2334;48.710;9.622;2022-08-18T12:19:43;27.80;99.90
4643;DHT22;2334;48.710;9.622;2022-08-18T12:22:14;28.10;99.90
4643;DHT22;2334;48.710;9.622;2022-08-18T12:24:42;27.90;99.90
4643;DHT22;2334;48.710;9.622;2022-08-18T12:27:12;27.40;99.90
4643;DHT22;2334;48.710;9.622;2022-08-18T12:29:41;27.10;99.90
4643;DHT22;2334;48.710;9.622;2022-08-18T12:32:08;27.20;99.90
4643;DHT22;2334;48.710;9.622;2022-08-18T12:34:36;27.50;99.90
4643;DHT22;2334;48.710;9.622;2022-08-18T12:37:03;27.80;99.90
4643;DHT22;2334;48.710;9.622;2022-08-18T12:39:33;27.90;99.90
4643;DHT22;2334;48.710;9.622;2022-08-18T12:42:01;28.40;99.90
4643;DHT22;2334;48.710;9.622;2022-08-18T12:44:28;28.50;99.90
4643;DHT22;2334;48.710;9.622;2022-08-18T12:46:56;28.80;99.90
4643;DHT22;2334;48.710;9.622;2022-08-18T12:49:24;29.00;99.90
4643;DHT22;2334;48.710;9.622;2022-08-18T12:51:51;29.50;99.90
4643;DHT22;2334;48.710;9.622;2022-08-18T12:54:20;29.80;99.90
4643;DHT22;2334;48.710;9.622;2022-08-18T12:56:50;29.60;99.90
4643;DHT22;2334;48.710;9.622;2022-08-18T12:59:17;29.20;99.90
4643;DHT22;2334;48.710;9.622;2022-08-18T13:01:45;28.70;99.90
4643;DHT22;2334;48.710;9.622;2022-08-18T13:04:13;28.30;99.90
4643;DHT22;2334;48.710;9.622;2022-08-18T13:06:45;28.00;99.90
4643;DHT22;2334;48.710;9.622;2022-08-18T13:09:12;27.80;99.90
4643;DHT22;2334;48.710;9.622;2022-08-18T13:11:39;27.80;99.90
4643;DHT22;2334;48.710;9.622;2022-08-18T13:14:07;27.70;99.90
4643;DHT22;2334;48.710;9.622;2022-08-18T13:16:35;27.70;99.90
4643;DHT22;2334;48.710;9.622;2022-08-18T13:19:04;27.80;99.90
4643;DHT22;2334;48.710;9.622;2022-08-18T13:21:33;27.90;99.90
4643;DHT22;2334;48.710;9.622;2022-08-18T13:24:01;27.70;99.90
4643;DHT22;2334;48.710;9.622;2022-08-18T13:26:29;28.20;99.90
4643;DHT22;2334;48.710;9.622;2022-08-18T13:28:57;28.30;99.90
4643;DHT22;2334;48.710;9.622;2022-08-18T13:31:25;28.50;99.90
4643;DHT22;2334;48.710;9.622;2022-08-18T13:33:52;28.40;99.90
4643;DHT22;2334;48.710;9.622;2022-08-18T13:36:19;28.80;99.90
4643;DHT22;2334;48.710;9.622;2022-08-18T13:38:48;28.90;99.90
4643;DHT22;2334;48.710;9.622;2022-08-18T13:41:17;28.90;99.90
4643;DHT22;2334;48.710;9.622;2022-08-18T13:43:47;29.00;99.90
4643;DHT22;2334;48.710;9.622;2022-08-18T13:46:16;29.40;99.90
4643;DHT22;2334;48.710;9.622;2022-08-18T13:48:44;29.30;99.90
4643;DHT22;2334;48.710;9.622;2022-08-18T13:51:17;29.30;99.90
4643;DHT22;2334;48.710;9.622;2022-08-18T13:53:48;28.90;99.90
4643;DHT22;2334;48.710;9.622;2022-08-18T13:56:15;28.60;99.90
4643;DHT22;2334;48.710;9.622;2022-08-18T13:58:45;28.40;99.90
4643;DHT22;2334;48.710;9.622;2022-08-18T14:01:13;28.30;99.90
4643;DHT22;2334;48.710;9.622;2022-08-18T14:03:40;28.40;99.90
4643;DHT22;2334;48.710;9.622;2022-08-18T14:06:07;28.50;99.90
4643;DHT22;2334;48.710;9.622;2022-08-18T14:08:34;28.80;99.90
4643;DHT22;2334;48.710;9.622;2022-08-18T14:11:02;28.80;99.90
4643;DHT22;2334;48.710;9.622;2022-08-18T14:13:30;28.80;99.90
4643;DHT22;2334;48.710;9.622;2022-08-18T14:15:57;28.60;99.90
4643;DHT22;2334;48.710;9.622;2022-08-18T14:18:26;28.40;99.90
4643;DHT22;2334;48.710;9.622;2022-08-18T14:20:54;28.40;99.90
4643;DHT22;2334;48.710;9.622;2022-08-18T14:23:38;28.50;99.90
4643;DHT22;2334;48.710;9.622;2022-08-18T14:26:24;28.90;99.90
4643;DHT22;2334;48.710;9.622;2022-08-18T14:29:08;28.90;99.90
4643;DHT22;2334;48.710;9.622;2022-08-18T14:31:35;28.90;99.90
4643;DHT22;2334;48.710;9.622;2022-08-18T14:34:02;28.70;99.90
4643;DHT22;2334;48.710;9.622;2022-08-18T14:36:29;28.50;99.90
4643;DHT22;2334;48.710;9.622;2022-08-18T14:38:57;28.40;99.90
4643;DHT22;2334;48.710;9.622;2022-08-18T14:41:25;28.30;99.90
4643;DHT22;2334;48.710;9.622;2022-08-18T14:43:52;27.90;99.90
4643;DHT22;2334;48.710;9.622;2022-08-18T14:46:20;27.90;99.90
4643;DHT22;2334;48.710;9.622;2022-08-18T14:48:47;27.90;99.90
4643;DHT22;2334;48.710;9.622;2022-08-18T14:51:15;27.90;99.90
4643;DHT22;2334;48.710;9.622;2022-08-18T14:53:42;27.80;99.90
4643;DHT22;2334;48.710;9.622;2022-08-18T14:56:09;27.80;99.90
4643;DHT22;2334;48.710;9.622;2022-08-18T14:58:38;27.80;99.90
4643;DHT22;2334;48.710;9.622;2022-08-18T15:01:07;27.80;99.90
4643;DHT22;2334;48.710;9.622;2022-08-18T15:03:37;27.80;99.90
4643;DHT22;2334;48.710;9.622;2022-08-18T15:06:05;27.60;99.90
4643;DHT22;2334;48.710;9.622;2022-08-18T15:08:33;27.50;99.90
4643;DHT22;2334;48.710;9.622;2022-08-18T15:11:00;27.80;99.90
4643;DHT22;2334;48.710;9.622;2022-08-18T15:13:28;28.10;99.90
4643;DHT22;2334;48.710;9.622;2022-08-18T15:15:56;28.10;99.90
4643;DHT22;2334;48.710;9.622;2022-08-18T15:18:23;28.30;99.90
4643;DHT22;2334;48.710;9.622;2022-08-18T15:20:50;28.50;99.90
4643;DHT22;2334;48.710;9.622;2022-08-18T15:23:34;28.50;99.90
4643;DHT22;2334;48.710;9.622;2022-08-18T15:26:21;28.10;99.90
4643;DHT22;2334;48.710;9.622;2022-08-18T15:28:49;28.20;99.90
4643;DHT22;2334;48.710;9.622;2022-08-18T15:31:18;28.10;99.90
4643;DHT22;2334;48.710;9.622;2022-08-18T15:33:44;28.20;99.90
4643;DHT22;2334;48.710;9.622;2022-08-18T15:36:12;28.20;99.90
4643;DHT22;2334;48.710;9.622;2022-08-18T15:38:41;28.20;99.90
4643;DHT22;2334;48.710;9.622;2022-08-18T15:41:08;28.30;99.90
4643;DHT22;2334;48.710;9.622;2022-08-18T15:43:40;28.30;99.90
4643;DHT22;2334;48.710;9.622;2022-08-18T15:46:08;28.10;99.90
4643;DHT22;2334;48.710;9.622;2022-08-18T15:48:36;27.80;99.90
4643;DHT22;2334;48.710;9.622;2022-08-18T15:51:03;27.60;99.90
4643;DHT22;2334;48.710;9.622;2022-08-18T15:53:30;27.40;99.90
4643;DHT22;2334;48.710;9.622;2022-08-18T15:55:57;27.30;99.90
4643;DHT22;2334;48.710;9.622;2022-08-18T15:58:24;27.20;99.90
4643;DHT22;2334;48.710;9.622;2022-08-18T16:00:51;27.30;99.90
4643;DHT22;2334;48.710;9.622;2022-08-18T16:03:18;27.50;99.90
4643;DHT22;2334;48.710;9.622;2022-08-18T16:05:49;27.50;99.90
4643;DHT22;2334;48.710;9.622;2022-08-18T16:08:18;27.60;99.90
4643;DHT22;2334;48.710;9.622;2022-08-18T16:10:45;27.50;99.90
4643;DHT22;2334;48.710;9.622;2022-08-18T16:13:12;27.30;99.90
4643;DHT22;2334;48.710;9.622;2022-08-18T16:15:42;27.20;99.90
4643;DHT22;2334;48.710;9.622;2022-08-18T16:18:12;27.20;99.90
4643;DHT22;2334;48.710;9.622;2022-08-18T16:20:39;27.00;99.90
4643;DHT22;2334;48.710;9.622;2022-08-18T16:23:09;27.10;99.90
4643;DHT22;2334;48.710;9.622;2022-08-18T16:25:37;27.00;99.90
4643;DHT22;2334;48.710;9.622;2022-08-18T16:28:04;27.10;99.90
4643;DHT22;2334;48.710;9.622;2022-08-18T16:30:31;27.00;99.90
4643;DHT22;2334;48.710;9.622;2022-08-18T16:33:00;27.00;99.90
4643;DHT22;2334;48.710;9.622;2022-08-18T16:35:29;27.00;99.90
4643;DHT22;2334;48.710;9.622;2022-08-18T16:38:01;27.00;99.90
4643;DHT22;2334;48.710;9.622;2022-08-18T16:40:30;27.00;99.90
4643;DHT22;2334;48.710;9.622;2022-08-18T16:42:57;26.90;99.90
4643;DHT22;2334;48.710;9.622;2022-08-18T16:45:25;26.80;99.90
4643;DHT22;2334;48.710;9.622;2022-08-18T16:47:52;26.70;99.90
4643;DHT22;2334;48.710;9.622;2022-08-18T16:50:19;26.70;99.90
4643;DHT22;2334;48.710;9.622;2022-08-18T16:52:48;26.60;99.90